Latest  Newer  Older  Last 2 hours animation  Current image  Latest image 
Rain/snow radar  Infrared sat images 
Real-time lightning map

All time is UTC (add 2 hours to UTC in wintertime, 3 hours to UTC in DST for Latvia local time)

2019/03/21 23:20 EVRA 212320Z 30007KT 250V350 9999 OVC013 08/06 Q1018 R36/290195 NOSIG
2019/03/21 23:20 EVLA 212320Z AUTO 28009KT 9999 FEW022/// BKN025/// BKN038/// 06/05 Q1022
2019/03/21 23:20 EVVA 212320Z AUTO 34011KT CAVOK 05/04 Q1022
2019/03/21 23:20 EYKA 212320Z 26013KT 9000 OVC005 07/06 Q1021 R08/29//95
2019/03/21 23:20 EYPA 212320Z AUTO 28006KT 230V330 4200 BR SCT003/// BKN025/// 05/05 Q1023
2019/03/21 22:50 EYSA 212250Z 28015KT 9999 OVC006 07/06 Q1020 R32R/19//95 YLO1 NOSIG
2019/03/21 23:20 EYVI 212320Z 28013KT 4300 -RA BR OVC002 07/07 Q1020 R19/0///95 NOSIG
2019/03/21 15:50 EEKA 211550Z 23006KT 4300 DZ SCT004 BKN007 OVC019 05/05 Q1013
2019/03/21 22:50 EEKE 212250Z AUTO 34011G22KT 310V010 9999NDV NSC 05/01 Q1019
2019/03/21 13:50 EEPU 211350Z 19007KT 150V230 3600 -RA BR BKN005 OVC008 03/03 Q1016
2019/03/21 23:20 EETN 212320Z 30014KT CAVOK 04/M01 Q1015 R08/290195
2019/03/21 22:50 EETU 212250Z 29011KT 260V330 9999 BKN007 OVC015 05/04 Q1013
   RIGA AIRPORT     EVRA               56 55N  023 58E   10   X     T          6 LV
   LIEPAJA INTL     EVLA        26406  56 31N  021 06E    4   X                8 LV
   VENTPILS         EVVA               57 21N  021 33E    6   X                8 LV
   KAUNAS           EYKA               54 54N  023 55E   77   X     T          6 LT
   PALANGA INTL     EYPA               55 55N  021 03E   10   X                6 LT
   SIAULIAI INTL    EYSA               55 54N  023 24E  135   X     T          6 LT
   VILNIUS INTL     EYVI        26730  54 38N  025 17E  197   X     T          6 LT
   KARDLA           EEKA        26116  58 59N  022 50E    4   X                8 EE
   KURESSAARE       EEKE               58 14N  022 31E    4   X                8 EE
   PARNU            EEPU               58 25N  024 28E   14   X                8 EE
   TALLINN          EETN        26038  59 24N  024 49E   40   X     T          8 EE
   TARTU            EETU               58 19N  026 41E   67   X                8 EE

cloud coverage image from sat24.com and METAR data from weather.noaa.gov